createdAt,value
2017-08-24T00:01:49.380Z,82.70
2017-08-24T00:03:59.072Z,80.47
2017-08-24T00:06:07.078Z,72.37
2017-08-24T00:08:14.591Z,75.50
2017-08-24T00:10:20.832Z,76.17
2017-08-24T00:12:27.044Z,74.77
2017-08-24T00:14:32.980Z,64.10
2017-08-24T00:16:39.578Z,70.70
2017-08-24T00:18:54.536Z,63.27
2017-08-24T00:21:04.080Z,56.97
2017-08-24T00:23:10.962Z,46.50
2017-08-24T00:25:18.128Z,44.33
2017-08-24T00:27:25.304Z,39.07
2017-08-24T00:29:32.656Z,50.87
2017-08-24T00:31:38.782Z,47.57
2017-08-24T00:35:58.878Z,41.27
2017-08-24T00:38:05.272Z,42.20
2017-08-24T00:40:12.269Z,34.67
2017-08-24T00:42:19.558Z,37.63
2017-08-24T00:44:25.841Z,33.30
2017-08-24T00:46:31.724Z,33.67
2017-08-24T00:48:38.337Z,28.10
2017-08-24T00:50:49.956Z,24.33
2017-08-24T00:52:59.421Z,25.00
2017-08-24T00:55:08.020Z,25.27
2017-08-24T00:57:14.940Z,23.87
2017-08-24T00:59:22.073Z,21.37
2017-08-24T01:01:31.279Z,29.40
2017-08-24T01:03:37.793Z,26.80
2017-08-24T01:05:49.498Z,21.57
2017-08-24T01:07:59.362Z,22.10
2017-08-24T01:10:07.122Z,18.47
2017-08-24T01:12:15.612Z,20.80
2017-08-24T01:14:22.172Z,24.37
2017-08-24T01:16:28.362Z,19.73
2017-08-24T01:18:34.357Z,23.33
2017-08-24T01:20:40.858Z,19.63
2017-08-24T01:22:54.196Z,16.33
2017-08-24T01:25:01.982Z,17.60
2017-08-24T01:27:10.084Z,18.83
2017-08-24T01:29:16.307Z,17.20
2017-08-24T01:31:22.633Z,18.70
2017-08-24T01:33:29.076Z,16.07
2017-08-24T01:35:35.244Z,15.10
2017-08-24T01:37:42.717Z,15.43
2017-08-24T01:39:54.610Z,14.30
2017-08-24T01:42:02.295Z,15.23
2017-08-24T01:44:08.492Z,13.83
2017-08-24T01:46:15.779Z,12.93
2017-08-24T01:48:23.515Z,13.63
2017-08-24T01:50:30.149Z,18.13
2017-08-24T01:52:37.764Z,12.60
2017-08-24T01:54:52.123Z,13.27
2017-08-24T01:57:03.454Z,12.83
2017-08-24T01:59:11.915Z,11.13
2017-08-24T02:01:19.131Z,12.20
2017-08-24T02:03:25.283Z,12.10
2017-08-24T02:05:31.895Z,13.63
2017-08-24T02:07:38.020Z,12.03
2017-08-24T02:09:51.317Z,11.67
2017-08-24T02:11:59.632Z,9.30
2017-08-24T02:14:06.334Z,11.60
2017-08-24T02:16:13.229Z,10.10
2017-08-24T02:18:21.108Z,11.13
2017-08-24T02:20:27.751Z,9.13
2017-08-24T02:22:34.651Z,10.90
2017-08-24T02:24:41.453Z,9.60
2017-08-24T02:26:47.847Z,13.53
2017-08-24T02:28:57.865Z,11.97
2017-08-24T02:31:05.122Z,8.83
2017-08-24T02:33:14.186Z,9.20
2017-08-24T02:35:19.919Z,9.20
2017-08-24T02:37:28.220Z,8.87
2017-08-24T02:39:34.573Z,10.70
2017-08-24T02:41:41.064Z,9.60
2017-08-24T02:43:55.087Z,8.53
2017-08-24T02:48:52.601Z,8.20
2017-08-24T02:51:01.111Z,8.90
2017-08-24T02:53:07.931Z,7.80
2017-08-24T02:55:16.660Z,16.80
2017-08-24T02:57:24.590Z,7.70
2017-08-24T02:59:30.391Z,7.33
2017-08-24T03:01:36.590Z,8.80
2017-08-24T03:03:43.286Z,11.20
2017-08-24T03:05:54.361Z,9.20
2017-08-24T03:08:03.886Z,7.83
2017-08-24T03:10:10.577Z,8.20
2017-08-24T03:12:17.413Z,7.63
2017-08-24T03:14:37.105Z,7.70
2017-08-24T03:20:13.144Z,7.80
2017-08-24T03:22:20.833Z,7.50
2017-08-24T03:24:32.408Z,7.60
2017-08-24T03:26:38.248Z,11.80
2017-08-24T03:28:49.798Z,8.07
2017-08-24T03:30:57.526Z,10.63
2017-08-24T03:33:06.503Z,9.70
2017-08-24T03:35:13.344Z,9.73
2017-08-24T03:37:18.907Z,8.00
2017-08-24T03:39:25.419Z,9.17
2017-08-24T03:41:32.420Z,9.43
2017-08-24T03:43:39.454Z,9.20
2017-08-24T03:45:54.553Z,9.70
2017-08-24T03:48:01.839Z,8.87
2017-08-24T03:50:10.041Z,9.10
2017-08-24T03:52:16.105Z,8.70
2017-08-24T03:54:22.047Z,9.80
2017-08-24T03:56:28.411Z,9.43
2017-08-24T03:58:34.767Z,10.47
2017-08-24T04:00:40.942Z,9.43
2017-08-24T04:02:54.497Z,10.27
2017-08-24T04:05:02.012Z,12.30
2017-08-24T04:07:08.743Z,9.30
2017-08-24T04:09:15.418Z,14.93
2017-08-24T04:11:22.331Z,14.50
2017-08-24T04:13:28.222Z,12.80
2017-08-24T04:15:34.640Z,11.57
2017-08-24T04:17:42.521Z,11.83
2017-08-24T04:19:55.470Z,18.43
2017-08-24T04:22:04.314Z,10.77
2017-08-24T04:24:09.976Z,12.30
2017-08-24T04:26:15.606Z,12.23
2017-08-24T04:28:23.309Z,13.83
2017-08-24T04:30:29.911Z,24.13
2017-08-24T04:32:36.555Z,19.80
2017-08-24T04:34:45.918Z,11.33
2017-08-24T04:36:58.533Z,15.23
2017-08-24T04:39:06.494Z,11.70
2017-08-24T04:41:13.218Z,12.37
2017-08-24T04:43:32.269Z,10.83
2017-08-24T04:45:37.850Z,16.40
2017-08-24T04:47:56.305Z,10.70
2017-08-24T04:50:11.183Z,11.90
2017-08-24T04:52:18.336Z,12.63
2017-08-24T04:54:26.157Z,12.93
2017-08-24T04:56:32.786Z,11.77
2017-08-24T04:58:45.669Z,10.90
2017-08-24T05:01:12.628Z,12.10
2017-08-24T05:03:22.985Z,14.53
2017-08-24T05:05:30.441Z,17.93
2017-08-24T05:07:38.529Z,10.80
2017-08-24T05:09:55.094Z,13.90
2017-08-24T05:12:03.546Z,15.73
2017-08-24T05:14:13.535Z,16.33
2017-08-24T05:16:20.566Z,13.50
2017-08-24T05:18:27.675Z,15.17
2017-08-24T05:20:35.943Z,15.97
2017-08-24T05:22:42.179Z,10.10
2017-08-24T05:24:52.470Z,15.57
2017-08-24T05:26:59.755Z,11.50
2017-08-24T05:29:05.543Z,11.30
2017-08-24T05:31:11.364Z,11.67
2017-08-24T05:33:20.761Z,9.50
2017-08-24T05:35:28.190Z,10.17
2017-08-24T05:37:34.922Z,9.97
2017-08-24T05:39:41.468Z,14.80
2017-08-24T05:41:51.252Z,10.23
2017-08-24T05:43:59.485Z,15.53
2017-08-24T05:46:06.019Z,12.70
2017-08-24T05:48:11.944Z,11.73
2017-08-24T05:50:18.290Z,11.33
2017-08-24T05:52:24.400Z,9.57
2017-08-24T05:54:30.507Z,10.23
2017-08-24T05:56:36.069Z,11.97
2017-08-24T05:58:48.635Z,7.90
2017-08-24T06:00:57.554Z,9.00
2017-08-24T06:03:04.037Z,12.60
2017-08-24T06:05:11.176Z,10.40
2017-08-24T06:07:18.820Z,17.60
2017-08-24T06:09:24.622Z,12.87
2017-08-24T06:11:30.387Z,9.47
2017-08-24T06:13:36.440Z,15.20
2017-08-24T06:15:42.992Z,7.80
2017-08-24T06:17:52.612Z,12.00
2017-08-24T06:19:59.611Z,7.80
2017-08-24T06:22:05.433Z,8.80
2017-08-24T06:24:12.367Z,9.80
2017-08-24T06:26:17.961Z,11.93
2017-08-24T06:28:25.544Z,9.27
2017-08-24T06:30:32.111Z,11.93
2017-08-24T06:32:38.347Z,9.40
2017-08-24T06:34:48.009Z,9.50
2017-08-24T06:39:07.909Z,14.33
2017-08-24T06:41:18.215Z,15.07
2017-08-24T06:43:25.683Z,11.30
2017-08-24T06:45:31.892Z,10.70
2017-08-24T06:47:37.657Z,10.87
2017-08-24T06:49:50.857Z,11.40
2017-08-24T06:51:57.938Z,11.60
2017-08-24T06:54:03.586Z,14.53
2017-08-24T06:56:09.201Z,7.80
2017-08-24T06:58:17.576Z,9.03
2017-08-24T07:00:24.421Z,9.03
2017-08-24T07:02:31.482Z,7.37
2017-08-24T07:04:38.901Z,15.70
2017-08-24T07:06:49.816Z,9.83
2017-08-24T07:08:58.093Z,7.20
2017-08-24T07:11:05.232Z,6.23
2017-08-24T07:13:11.725Z,8.20
2017-08-24T07:15:18.565Z,8.10
2017-08-24T07:17:26.169Z,7.40
2017-08-24T07:19:32.528Z,10.87
2017-08-24T07:21:40.123Z,6.90
2017-08-24T07:23:54.250Z,7.40
2017-08-24T07:26:02.268Z,11.50
2017-08-24T07:28:09.170Z,8.10
2017-08-24T07:30:19.013Z,10.27
2017-08-24T07:32:33.421Z,7.47
2017-08-24T07:34:43.781Z,11.40
2017-08-24T07:36:52.905Z,11.17
2017-08-24T07:39:01.553Z,9.40
2017-08-24T07:41:07.384Z,8.77
2017-08-24T07:43:13.599Z,9.40
2017-08-24T07:45:22.400Z,8.57
2017-08-24T07:47:30.109Z,9.40
2017-08-24T07:49:39.126Z,7.83
2017-08-24T07:51:52.188Z,10.27
2017-08-24T07:54:00.958Z,7.20
2017-08-24T07:56:08.558Z,7.00
2017-08-24T07:58:15.390Z,10.30
2017-08-24T08:00:23.012Z,10.07
2017-08-24T08:02:29.633Z,6.70
2017-08-24T08:04:36.709Z,9.77
2017-08-24T08:06:43.377Z,6.90
2017-08-24T08:08:54.433Z,10.50
2017-08-24T08:11:01.811Z,9.30
2017-08-24T08:13:09.656Z,10.37
2017-08-24T08:15:16.823Z,13.50
2017-08-24T08:17:22.270Z,8.43
2017-08-24T08:19:28.236Z,9.43
2017-08-24T08:21:34.376Z,7.10
2017-08-24T08:23:40.061Z,7.63
2017-08-24T08:25:45.836Z,13.73
2017-08-24T08:27:58.690Z,6.80
2017-08-24T08:30:05.134Z,7.70
2017-08-24T08:32:11.683Z,9.80
2017-08-24T08:34:18.034Z,8.20
2017-08-24T08:36:23.847Z,6.13
2017-08-24T08:38:29.811Z,6.50
2017-08-24T08:40:36.980Z,7.23
2017-08-24T08:42:42.812Z,7.30
2017-08-24T08:44:51.007Z,6.30
2017-08-24T08:47:01.538Z,10.70
2017-08-24T08:49:07.191Z,10.90
2017-08-24T08:51:13.563Z,8.47
2017-08-24T08:53:26.196Z,8.57
2017-08-24T08:55:31.968Z,6.03
2017-08-24T08:57:38.709Z,8.93
2017-08-24T08:59:48.961Z,6.47
2017-08-24T09:01:56.010Z,7.37
2017-08-24T09:04:01.825Z,8.07
2017-08-24T09:06:08.662Z,8.33
2017-08-24T09:08:16.143Z,6.57
2017-08-24T09:10:22.998Z,7.83
2017-08-24T09:12:30.366Z,7.37
2017-08-24T09:14:38.122Z,8.33
2017-08-24T09:16:45.669Z,8.80
2017-08-24T09:18:57.629Z,11.53
2017-08-24T09:21:06.563Z,6.43
2017-08-24T09:23:13.018Z,8.50
2017-08-24T09:25:19.438Z,13.87
2017-08-24T09:27:25.168Z,12.17
2017-08-24T09:29:31.613Z,7.90
2017-08-24T09:31:37.721Z,10.13
2017-08-24T09:33:44.059Z,9.83
2017-08-24T09:35:52.680Z,9.93
2017-08-24T09:38:00.509Z,7.00
2017-08-24T09:40:06.280Z,9.63
2017-08-24T09:42:12.862Z,14.73
2017-08-24T09:44:19.532Z,10.50
2017-08-24T09:46:25.540Z,6.80
2017-08-24T09:48:32.804Z,10.10
2017-08-24T09:50:38.907Z,10.00
2017-08-24T09:52:51.196Z,5.77
2017-08-24T09:54:57.363Z,10.63
2017-08-24T09:57:04.812Z,6.63
2017-08-24T09:59:11.452Z,6.07
2017-08-24T10:01:18.508Z,5.40
2017-08-24T10:03:24.575Z,6.20
2017-08-24T10:05:30.284Z,5.90
2017-08-24T10:07:39.306Z,6.13
2017-08-24T10:09:49.598Z,5.83
2017-08-24T10:14:09.535Z,10.73
2017-08-24T10:16:15.801Z,6.20
2017-08-24T10:18:22.385Z,6.87
2017-08-24T10:20:29.215Z,12.93
2017-08-24T10:22:36.017Z,6.40
2017-08-24T10:24:50.003Z,8.13
2017-08-24T10:26:59.288Z,6.50
2017-08-24T10:29:05.977Z,10.80
2017-08-24T10:31:11.808Z,6.17
2017-08-24T10:33:17.904Z,6.67
2017-08-24T10:35:24.252Z,10.60
2017-08-24T10:37:30.030Z,9.70
2017-08-24T10:39:36.557Z,5.80
2017-08-24T10:41:44.903Z,6.13
2017-08-24T10:43:53.422Z,10.30
2017-08-24T10:46:00.286Z,7.10
2017-08-24T10:48:07.835Z,8.57
2017-08-24T10:50:13.701Z,6.03
2017-08-24T10:52:19.717Z,6.40
2017-08-24T10:54:29.245Z,7.97
2017-08-24T10:56:35.049Z,11.23
2017-08-24T10:58:44.047Z,11.33
2017-08-24T11:00:55.552Z,8.07
2017-08-24T11:03:04.000Z,10.47
2017-08-24T11:05:11.629Z,9.13
2017-08-24T11:07:24.599Z,9.57
2017-08-24T11:09:31.666Z,9.27
2017-08-24T11:11:37.775Z,8.60
2017-08-24T11:13:48.312Z,9.33
2017-08-24T11:15:59.023Z,10.00
2017-08-24T11:18:12.157Z,13.13
2017-08-24T11:20:19.769Z,15.73
2017-08-24T11:22:26.797Z,11.13
2017-08-24T11:24:34.075Z,13.47
2017-08-24T11:26:41.923Z,11.03
2017-08-24T11:28:58.206Z,13.00
2017-08-24T11:31:07.325Z,15.30
2017-08-24T11:33:13.865Z,10.57
2017-08-24T11:35:23.530Z,12.40
2017-08-24T11:37:31.519Z,13.00
2017-08-24T11:39:41.705Z,13.17
2017-08-24T11:41:54.269Z,11.60
2017-08-24T11:44:00.088Z,11.10
2017-08-24T11:46:06.617Z,13.07
2017-08-24T11:48:13.415Z,12.50
2017-08-24T11:50:19.630Z,12.90
2017-08-24T11:52:27.726Z,11.47
2017-08-24T11:54:34.916Z,11.60
2017-08-24T11:56:40.830Z,11.67
2017-08-24T11:58:52.524Z,11.03
2017-08-24T12:01:03.955Z,11.37
2017-08-24T12:03:13.980Z,11.50
2017-08-24T12:05:22.480Z,13.13
2017-08-24T12:07:29.164Z,11.57
2017-08-24T12:09:35.629Z,12.80
2017-08-24T12:11:44.211Z,12.10
2017-08-24T12:13:53.859Z,11.93
2017-08-24T12:16:02.123Z,10.90
2017-08-24T12:18:08.256Z,13.50
2017-08-24T12:20:16.514Z,11.83
2017-08-24T12:22:22.275Z,12.40
2017-08-24T12:24:28.335Z,11.83
2017-08-24T12:26:34.904Z,11.13
2017-08-24T12:28:42.433Z,12.27
2017-08-24T12:30:51.942Z,12.47
2017-08-24T12:32:57.903Z,13.13
2017-08-24T12:35:04.286Z,10.83
2017-08-24T12:37:11.840Z,12.60
2017-08-24T12:39:18.811Z,12.40
2017-08-24T12:41:24.456Z,12.20
2017-08-24T12:43:30.367Z,12.90
2017-08-24T12:45:36.050Z,11.67
2017-08-24T12:47:44.846Z,11.70
2017-08-24T12:49:57.497Z,12.20
2017-08-24T12:52:05.044Z,11.73
2017-08-24T12:54:12.159Z,11.50
2017-08-24T12:56:18.668Z,12.50
2017-08-24T12:58:25.027Z,11.87
2017-08-24T13:00:31.626Z,13.30
2017-08-24T13:02:38.057Z,11.87
2017-08-24T13:04:46.943Z,15.47
2017-08-24T13:06:56.940Z,11.13
2017-08-24T13:09:02.802Z,11.83
2017-08-24T13:11:09.886Z,11.07
2017-08-24T13:13:18.193Z,10.93
2017-08-24T13:15:25.227Z,11.23
2017-08-24T13:17:31.900Z,11.87
2017-08-24T13:19:38.318Z,11.10
2017-08-24T13:21:47.172Z,11.10
2017-08-24T13:23:58.132Z,11.17
2017-08-24T13:26:05.098Z,10.90
2017-08-24T13:28:11.317Z,13.13
2017-08-24T13:30:19.370Z,10.77
2017-08-24T13:32:27.527Z,10.53
2017-08-24T13:34:34.852Z,10.63
2017-08-24T13:36:42.457Z,11.73
2017-08-24T13:38:52.785Z,10.70
2017-08-24T13:40:59.506Z,11.07
2017-08-24T13:43:06.952Z,10.37
2017-08-24T13:45:13.321Z,10.13
2017-08-24T13:47:20.617Z,11.20
2017-08-24T13:49:29.816Z,11.13
2017-08-24T13:51:38.431Z,10.77
2017-08-24T13:53:49.893Z,14.60
2017-08-24T13:55:56.074Z,9.53
2017-08-24T13:58:04.834Z,12.03
2017-08-24T14:00:14.447Z,12.07
2017-08-24T14:02:21.516Z,9.90
2017-08-24T14:04:27.768Z,10.13
2017-08-24T14:06:40.260Z,10.03
2017-08-24T14:11:07.863Z,9.83
2017-08-24T14:13:16.564Z,9.87
2017-08-24T14:15:22.641Z,9.60
2017-08-24T14:17:30.859Z,9.43
2017-08-24T14:19:40.855Z,9.30
2017-08-24T14:21:51.839Z,9.40
2017-08-24T14:24:00.558Z,10.70
2017-08-24T14:26:10.147Z,8.97
2017-08-24T14:28:17.320Z,8.30
2017-08-24T14:30:23.971Z,14.07
2017-08-24T14:32:41.054Z,7.83
2017-08-24T14:34:49.068Z,9.30
2017-08-24T14:36:56.520Z,7.90
2017-08-24T14:39:05.207Z,8.73
2017-08-24T14:41:14.988Z,7.97
2017-08-24T14:43:23.156Z,7.70
2017-08-24T14:45:31.329Z,8.67
2017-08-24T14:47:40.439Z,8.60
2017-08-24T14:49:48.796Z,8.63
2017-08-24T14:51:56.981Z,13.73
2017-08-24T14:54:04.523Z,8.77
2017-08-24T14:56:17.615Z,8.37
2017-08-24T14:58:23.895Z,7.40
2017-08-24T15:00:39.649Z,7.77
2017-08-24T15:02:48.540Z,8.17
2017-08-24T15:05:03.460Z,7.40
2017-08-24T15:07:22.759Z,7.50
2017-08-24T15:09:46.514Z,7.83
2017-08-24T15:12:00.866Z,7.90
2017-08-24T15:14:09.410Z,7.00
2017-08-24T15:16:16.492Z,8.00
2017-08-24T15:18:22.654Z,7.70
2017-08-24T15:20:28.493Z,7.40
2017-08-24T15:22:37.741Z,6.37
2017-08-24T15:24:49.289Z,7.27
2017-08-24T15:26:59.847Z,7.33
2017-08-24T15:29:09.267Z,7.40
2017-08-24T15:31:16.050Z,7.03
2017-08-24T15:33:21.783Z,11.13
2017-08-24T15:35:28.922Z,7.67
2017-08-24T15:37:41.203Z,6.33
2017-08-24T15:39:47.079Z,6.50
2017-08-24T15:41:53.911Z,7.57
2017-08-24T15:44:00.971Z,6.90
2017-08-24T15:46:06.934Z,9.00
2017-08-24T15:48:14.230Z,5.60
2017-08-24T15:50:21.095Z,6.83
2017-08-24T15:52:27.447Z,6.87
2017-08-24T15:54:33.184Z,5.90
2017-08-24T15:56:39.322Z,6.80
2017-08-24T15:58:48.973Z,6.00
2017-08-24T16:00:56.479Z,6.70
2017-08-24T16:03:02.671Z,5.90
2017-08-24T16:05:09.761Z,5.57
2017-08-24T16:07:16.873Z,6.10
2017-08-24T16:09:23.581Z,7.97
2017-08-24T16:11:31.939Z,6.10
2017-08-24T16:13:41.984Z,6.67
2017-08-24T16:15:50.525Z,6.10
2017-08-24T16:17:57.033Z,5.67
2017-08-24T16:20:07.532Z,5.53
2017-08-24T16:22:12.995Z,6.53
2017-08-24T16:24:18.967Z,5.50
2017-08-24T16:26:24.883Z,5.20
2017-08-24T16:28:30.284Z,5.67
2017-08-24T16:30:38.751Z,5.70
2017-08-24T16:32:44.807Z,5.37
2017-08-24T16:34:50.685Z,5.07
2017-08-24T16:36:58.488Z,5.87
2017-08-24T16:39:05.202Z,4.67
2017-08-24T16:41:12.269Z,5.30
2017-08-24T16:43:18.756Z,5.33
2017-08-24T16:45:25.112Z,4.70
2017-08-24T16:47:31.524Z,5.87
2017-08-24T16:49:41.562Z,4.70
2017-08-24T16:51:49.634Z,5.10
2017-08-24T16:53:57.497Z,5.60
2017-08-24T16:56:05.641Z,5.17
2017-08-24T16:58:13.590Z,5.60
2017-08-24T17:00:20.793Z,5.30
2017-08-24T17:02:27.281Z,5.30
2017-08-24T17:04:35.791Z,6.30
2017-08-24T17:06:44.216Z,5.90
2017-08-24T17:08:52.049Z,4.60
2017-08-24T17:11:00.385Z,5.23
2017-08-24T17:13:07.607Z,5.23
2017-08-24T17:15:13.996Z,5.17
2017-08-24T17:17:21.158Z,10.13
2017-08-24T17:19:27.521Z,5.47
2017-08-24T17:21:33.338Z,5.37
2017-08-24T17:23:41.416Z,4.53
2017-08-24T17:25:51.276Z,6.03
2017-08-24T17:28:00.971Z,5.07
2017-08-24T17:30:06.816Z,4.80
2017-08-24T17:32:13.020Z,5.30
2017-08-24T17:34:19.031Z,5.50
2017-08-24T17:36:26.957Z,5.70
2017-08-24T17:38:32.632Z,5.83
2017-08-24T17:40:38.390Z,4.93
2017-08-24T17:42:50.527Z,6.50
2017-08-24T17:45:02.393Z,8.90
2017-08-24T17:47:14.765Z,6.40
2017-08-24T17:49:22.017Z,10.27
2017-08-24T17:51:27.843Z,6.63
2017-08-24T17:53:34.563Z,7.33
2017-08-24T17:55:42.167Z,5.47
2017-08-24T17:57:55.035Z,6.43
2017-08-24T18:00:04.719Z,6.50
2017-08-24T18:02:15.351Z,236.73
2017-08-24T18:04:24.666Z,534.53
2017-08-24T18:06:40.207Z,559.13
2017-08-24T18:08:50.973Z,319.80
2017-08-24T18:11:05.252Z,277.43
2017-08-24T18:13:18.389Z,187.87
2017-08-24T18:15:29.938Z,160.00
2017-08-24T18:17:38.210Z,150.73
2017-08-24T18:19:48.741Z,133.50
2017-08-24T18:22:02.046Z,136.30
2017-08-24T18:24:09.861Z,580.23
2017-08-24T18:26:19.273Z,654.73
2017-08-24T18:28:30.673Z,552.00
2017-08-24T18:30:44.235Z,426.80
2017-08-24T18:32:58.657Z,363.47
2017-08-24T18:35:11.652Z,300.83
2017-08-24T18:37:18.736Z,300.60
2017-08-24T18:39:25.442Z,241.20
2017-08-24T18:41:33.291Z,228.87
2017-08-24T18:43:43.451Z,254.20
2017-08-24T18:45:54.242Z,266.63
2017-08-24T18:48:01.742Z,519.33
2017-08-24T18:50:13.212Z,458.27
2017-08-24T18:52:19.208Z,472.77
2017-08-24T18:54:25.904Z,524.23
2017-08-24T18:56:37.628Z,391.60
2017-08-24T18:58:50.370Z,283.03
2017-08-24T19:01:00.055Z,271.47
2017-08-24T19:03:14.641Z,274.23
2017-08-24T19:05:22.817Z,237.00
2017-08-24T19:07:29.386Z,226.70
2017-08-24T19:09:36.030Z,229.77
2017-08-24T19:11:45.974Z,195.13
2017-08-24T19:13:55.666Z,166.50
2017-08-24T19:16:03.533Z,157.63
2017-08-24T19:18:11.601Z,398.90
2017-08-24T19:20:23.358Z,522.33
2017-08-24T19:22:29.670Z,558.83
2017-08-24T19:24:37.460Z,498.03
2017-08-24T19:26:46.701Z,465.37
2017-08-24T19:28:55.537Z,370.97
2017-08-24T19:31:04.194Z,278.60
2017-08-24T19:33:11.510Z,262.90
2017-08-24T19:35:34.555Z,241.83
2017-08-24T19:37:45.492Z,196.60
2017-08-24T19:39:56.546Z,216.13
2017-08-24T19:42:06.568Z,107.30
2017-08-24T19:44:17.066Z,127.10
2017-08-24T19:46:30.145Z,132.40
2017-08-24T19:48:47.503Z,127.30
2017-08-24T19:51:18.013Z,112.33
2017-08-24T19:53:25.322Z,106.80
2017-08-24T19:55:31.403Z,96.10
2017-08-24T20:02:29.837Z,515.20
2017-08-24T20:04:38.008Z,510.37
2017-08-24T20:06:50.836Z,373.17
2017-08-24T20:08:58.152Z,321.10
2017-08-24T20:11:08.597Z,271.83
2017-08-24T20:13:18.213Z,250.80
2017-08-24T20:15:24.770Z,191.37
2017-08-24T20:17:31.479Z,189.83
2017-08-24T20:19:37.131Z,161.00
2017-08-24T20:21:44.862Z,164.37
2017-08-24T20:23:52.124Z,148.70
2017-08-24T20:26:10.594Z,155.60
2017-08-24T20:28:16.703Z,109.90
2017-08-24T20:30:22.931Z,102.50
2017-08-24T20:32:28.595Z,103.93
2017-08-24T20:34:35.772Z,111.10
2017-08-24T20:36:43.699Z,96.17
2017-08-24T20:38:51.636Z,92.60
2017-08-24T20:41:02.145Z,80.63
2017-08-24T20:43:10.220Z,73.37
2017-08-24T20:45:18.969Z,74.93
2017-08-24T20:47:27.455Z,64.17
2017-08-24T20:49:38.489Z,69.00
2017-08-24T20:51:51.602Z,59.87
2017-08-24T20:54:02.103Z,59.10
2017-08-24T20:56:12.312Z,58.60
2017-08-24T20:58:17.945Z,47.57
2017-08-24T21:00:26.812Z,42.63
2017-08-24T21:02:38.274Z,255.50
2017-08-24T21:04:59.602Z,376.27
2017-08-24T21:07:06.052Z,466.70
2017-08-24T21:09:24.409Z,479.77
2017-08-24T21:11:31.785Z,418.10
2017-08-24T21:13:38.738Z,337.37
2017-08-24T21:15:47.964Z,272.70
2017-08-24T21:17:59.267Z,239.93
2017-08-24T21:20:21.175Z,306.63
2017-08-24T21:22:33.236Z,237.73
2017-08-24T21:24:39.977Z,314.70
2017-08-24T21:26:47.936Z,427.43
2017-08-24T21:28:55.287Z,236.27
2017-08-24T21:31:12.128Z,262.83
2017-08-24T21:33:28.292Z,203.30
2017-08-24T21:35:35.039Z,135.30
2017-08-24T21:37:41.136Z,107.57
2017-08-24T21:39:49.060Z,86.00
2017-08-24T21:41:57.943Z,78.00
2017-08-24T21:44:04.202Z,67.03
2017-08-24T21:46:12.925Z,62.30
2017-08-24T21:48:56.614Z,68.83
2017-08-24T21:53:52.167Z,50.20
2017-08-24T21:56:28.856Z,46.60
2017-08-24T21:58:51.503Z,43.17
2017-08-24T22:01:03.892Z,48.87
2017-08-24T22:03:19.596Z,48.73
2017-08-24T22:05:32.810Z,45.40
2017-08-24T22:07:47.121Z,42.23
2017-08-24T22:09:56.317Z,33.57
2017-08-24T22:12:04.189Z,36.37
2017-08-24T22:14:11.837Z,32.93
2017-08-24T22:16:20.903Z,32.27
2017-08-24T22:18:29.086Z,27.23
2017-08-24T22:20:37.999Z,25.50
2017-08-24T22:22:47.175Z,30.60
2017-08-24T22:25:01.127Z,30.90
2017-08-24T22:27:07.937Z,27.03
2017-08-24T22:29:17.008Z,28.30
2017-08-24T22:31:24.313Z,24.40
2017-08-24T22:33:31.847Z,22.53
2017-08-24T22:35:38.433Z,22.33
2017-08-24T22:38:45.242Z,22.00
2017-08-24T22:40:53.326Z,20.80
2017-08-24T22:43:01.466Z,20.40
2017-08-24T22:45:10.500Z,22.03
2017-08-24T22:47:23.153Z,19.23
2017-08-24T22:50:19.234Z,20.83
2017-08-24T22:52:24.850Z,20.27
2017-08-24T23:01:54.253Z,17.30
2017-08-24T23:04:01.402Z,18.87
2017-08-24T23:06:10.135Z,15.50
2017-08-24T23:08:18.752Z,15.80
2017-08-24T23:10:25.770Z,16.13
2017-08-24T23:12:32.218Z,16.17
2017-08-24T23:14:38.483Z,15.77
2017-08-24T23:16:50.900Z,15.63
2017-08-24T23:19:00.025Z,15.00
2017-08-24T23:21:06.378Z,14.53
2017-08-24T23:23:12.352Z,13.40
2017-08-24T23:25:20.964Z,13.80
2017-08-24T23:27:26.840Z,14.00
2017-08-24T23:29:32.752Z,13.60
2017-08-24T23:31:38.899Z,13.00
2017-08-24T23:33:47.635Z,12.77
2017-08-24T23:35:55.231Z,12.87
2017-08-24T23:38:02.074Z,12.33
2017-08-24T23:40:29.832Z,13.10
2017-08-24T23:42:50.805Z,12.50
2017-08-24T23:45:36.376Z,12.97
2017-08-24T23:47:49.923Z,12.07
2017-08-24T23:50:13.535Z,12.87
2017-08-24T23:52:32.733Z,11.23
2017-08-24T23:54:39.149Z,11.30
2017-08-24T23:56:48.743Z,11.67
2017-08-24T23:58:58.719Z,10.97
